This is the latest recevied weather packets stored in our database for station/object OE5HCE. If no packets are shown the sender has not sent any weather packets the latest 10 day(s).
| Time | Temp. | Humidity | Pressure | Rain* | Wind** | Luminosity | Snow |
|---|---|---|---|---|---|---|---|
| 1787463035 | 12.22° C | 42% | 1023.8 hPa | 0 mm | - | 130 W/m² | - |
| 1787462117 | 11.67° C | 44% | 1023.7 hPa | 0 mm | - | 83 W/m² | - |
| 1787461221 | 11.67° C | 46% | 1023.7 hPa | 0 mm | - | 49 W/m² | - |
| 1787460314 | 11.67° C | 47% | 1023.6 hPa | 0 mm | - | 32 W/m² | - |
| 1787459414 | 11.11° C | 50% | 1023.4 hPa | 0 mm | - | 14 W/m² | - |
| 1787458507 | 11.11° C | 51% | 1023.2 hPa | 0 mm | - | 5 W/m² | - |
| 1787457606 | 11.11° C | 52% | 1023 hPa | 0 mm | - | 0 W/m² | - |
| 1787456704 | 11.11° C | 54% | 1023 hPa | 0 mm | - | 0 W/m² | - |
| 1787455803 | 11.67° C | 52% | 1023 hPa | 0 mm | - | 0 W/m² | - |
| 1787454902 | 11.67° C | 52% | 1023 hPa | 0 mm | - | 0 W/m² | - |
| 1787454003 | 11.67° C | 53% | 1023.1 hPa | 0 mm | - | 0 W/m² | - |
| 1787453182 | 11.67° C | 54% | 1023.1 hPa | 0 mm | - | 0 W/m² | - |
| 1787452265 | 11.67° C | 54% | 1023.1 hPa | 0 mm | - | 0 W/m² | - |
| 1787451363 | 11.67° C | 54% | 1023.2 hPa | 0 mm | - | 0 W/m² | - |
| 1787450456 | 12.22° C | 54% | 1023.3 hPa | 0 mm | - | 0 W/m² | - |
| 1787449556 | 12.22° C | 54% | 1023.2 hPa | 0 mm | - | 0 W/m² | - |
| 1787448654 | 12.22° C | 56% | 1023.2 hPa | 0 mm | - | 0 W/m² | - |
| 1787447770 | 12.22° C | 58% | 1023.2 hPa | 0 mm | - | 0 W/m² | - |
| 1787446855 | 12.22° C | 59% | 1023.3 hPa | 0 mm | - | 0 W/m² | - |
| 1787445961 | 12.22° C | 59% | 1023.3 hPa | 0 mm | - | 0 W/m² | - |
| 1787445047 | 12.22° C | 60% | 1023.2 hPa | 0 mm | - | 0 W/m² | - |
| 1787444145 | 12.22° C | 63% | 1023.2 hPa | 0 mm | - | 0 W/m² | - |
| 1787443250 | 12.78° C | 64% | 1023.3 hPa | 0 mm | - | 0 W/m² | - |
| 1787442341 | 12.78° C | 67% | 1023.4 hPa | 0 mm | - | 0 W/m² | - |
| 1787441440 | 13.33° C | 68% | 1023.4 hPa | 0 mm | - | 0 W/m² | - |
* Rain latest hour (hover to see other rain measurements)
** Current wind speed in m/s (hover to see current wind gust speed)